createdAt,value
2023-03-18T00:00:15.520Z,152.00
2023-03-18T00:01:17.385Z,152.00
2023-03-18T00:02:19.518Z,152.83
2023-03-18T00:03:21.378Z,154.00
2023-03-18T00:04:24.342Z,155.33
2023-03-18T00:05:26.125Z,156.17
2023-03-18T00:06:28.538Z,157.00
2023-03-18T00:07:30.870Z,157.00
2023-03-18T00:08:33.835Z,157.00
2023-03-18T00:09:35.684Z,157.00
2023-03-18T00:10:37.453Z,157.00
2023-03-18T00:11:39.420Z,157.00
2023-03-18T00:12:41.807Z,157.83
2023-03-18T00:13:43.758Z,158.00
2023-03-18T00:14:46.451Z,157.17
2023-03-18T00:15:51.064Z,157.50
2023-03-18T00:16:52.845Z,158.33
2023-03-18T00:17:54.811Z,159.83
2023-03-18T00:18:56.626Z,161.50
2023-03-18T00:20:05.724Z,162.83
2023-03-18T00:21:07.760Z,163.00
2023-03-18T00:22:10.309Z,163.83
2023-03-18T00:23:12.198Z,164.33
2023-03-18T00:24:15.385Z,165.50
2023-03-18T00:25:17.232Z,166.83
2023-03-18T00:26:19.314Z,169.00
2023-03-18T00:27:21.097Z,171.50
2023-03-18T00:28:24.330Z,172.00
2023-03-18T00:29:26.633Z,172.83
2023-03-18T00:30:28.409Z,172.00
2023-03-18T00:31:30.526Z,172.00
2023-03-18T00:32:32.829Z,173.00
2023-03-18T00:33:40.093Z,174.50
2023-03-18T00:34:42.055Z,176.67
2023-03-18T00:35:45.611Z,177.00
2023-03-18T00:36:50.926Z,177.33
2023-03-18T00:37:53.598Z,178.00
2023-03-18T00:39:03.272Z,178.00
2023-03-18T00:40:10.204Z,177.17
2023-03-18T00:41:15.788Z,177.00
2023-03-18T00:42:17.782Z,177.00
2023-03-18T00:43:29.272Z,177.00
2023-03-18T00:44:31.978Z,177.00
2023-03-18T00:45:37.439Z,177.83
2023-03-18T00:46:39.410Z,178.83
2023-03-18T00:47:41.991Z,179.83
2023-03-18T00:48:44.920Z,179.50
2023-03-18T00:49:47.267Z,179.00
2023-03-18T00:50:50.192Z,179.00
2023-03-18T00:51:52.045Z,179.00
2023-03-18T00:52:54.825Z,179.00
2023-03-18T00:53:58.802Z,179.00
2023-03-18T00:55:01.015Z,178.83
2023-03-18T00:56:02.912Z,178.00
2023-03-18T00:57:04.781Z,177.83
2023-03-18T00:58:07.523Z,177.00
2023-03-18T00:59:09.338Z,176.00
2023-03-18T01:00:11.710Z,174.83
2023-03-18T01:01:15.587Z,173.17
2023-03-18T01:02:17.796Z,171.17
2023-03-18T01:03:25.852Z,169.00
2023-03-18T01:04:28.166Z,166.50
2023-03-18T01:05:31.567Z,163.00
2023-03-18T01:06:36.026Z,159.17
2023-03-18T01:07:37.852Z,156.50
2023-03-18T01:08:41.236Z,154.50
2023-03-18T01:09:43.694Z,153.17
2023-03-18T01:10:45.545Z,152.00
2023-03-18T01:11:47.730Z,152.00
2023-03-18T01:12:49.550Z,152.00
2023-03-18T01:13:52.096Z,151.00
2023-03-18T01:14:53.893Z,150.33
2023-03-18T01:15:56.235Z,149.83
2023-03-18T01:16:58.174Z,148.67
2023-03-18T01:17:59.964Z,146.17
2023-03-18T01:19:01.821Z,140.50
2023-03-18T01:20:04.100Z,136.33
2023-03-18T01:21:06.245Z,133.00
2023-03-18T01:22:08.450Z,132.00
2023-03-18T01:23:11.343Z,132.00
2023-03-18T01:24:13.176Z,131.00
2023-03-18T01:25:17.897Z,131.67
2023-03-18T01:26:19.817Z,132.83
2023-03-18T01:27:21.889Z,133.83
2023-03-18T01:28:24.260Z,134.00
2023-03-18T01:29:26.113Z,134.00
2023-03-18T01:30:28.661Z,134.00
2023-03-18T01:31:30.571Z,134.00
2023-03-18T01:32:32.710Z,134.00
2023-03-18T01:33:35.693Z,134.50
2023-03-18T01:34:37.446Z,135.00
2023-03-18T01:35:39.534Z,135.33
2023-03-18T01:36:41.405Z,136.00
2023-03-18T01:37:43.945Z,136.00
2023-03-18T01:38:45.876Z,136.00
2023-03-18T01:39:47.705Z,136.00
2023-03-18T01:40:50.954Z,136.00
2023-03-18T01:41:52.928Z,136.00
2023-03-18T01:43:20.742Z,135.00
2023-03-18T01:44:24.777Z,135.00
2023-03-18T01:45:29.359Z,135.00
2023-03-18T01:46:41.067Z,135.33
2023-03-18T01:47:44.860Z,138.00
2023-03-18T01:48:46.829Z,141.00
2023-03-18T01:49:50.541Z,143.67
2023-03-18T01:51:02.547Z,145.33
2023-03-18T01:52:16.278Z,146.50
2023-03-18T01:53:19.329Z,147.00
2023-03-18T01:54:22.763Z,146.17
2023-03-18T01:55:28.988Z,146.00
2023-03-18T01:56:30.967Z,145.67
2023-03-18T01:57:34.733Z,144.83
2023-03-18T01:58:40.432Z,143.83
2023-03-18T01:59:42.941Z,143.00
2023-03-18T02:00:51.793Z,142.83
2023-03-18T02:02:02.892Z,142.00
2023-03-18T02:03:04.937Z,141.00
2023-03-18T02:04:10.501Z,140.17
2023-03-18T02:05:15.350Z,139.67
2023-03-18T02:06:17.195Z,139.00
2023-03-18T02:07:27.961Z,138.33
2023-03-18T02:08:30.140Z,137.83
2023-03-18T02:09:32.068Z,137.00
2023-03-18T02:10:34.360Z,136.33
2023-03-18T02:11:40.009Z,136.00
2023-03-18T02:12:45.810Z,136.00
2023-03-18T02:13:48.323Z,136.00
2023-03-18T02:14:51.406Z,136.00
2023-03-18T02:15:58.796Z,136.00
2023-03-18T02:17:10.475Z,136.83
2023-03-18T02:18:18.023Z,137.50
2023-03-18T02:19:32.260Z,138.00
2023-03-18T02:20:37.269Z,138.00
2023-03-18T02:22:26.656Z,138.00
2023-03-18T02:23:59.461Z,136.83
2023-03-18T02:25:04.078Z,135.67
2023-03-18T02:26:24.145Z,135.00
2023-03-18T02:27:32.451Z,134.50
2023-03-18T02:28:37.494Z,134.00
2023-03-18T02:29:42.281Z,134.00
2023-03-18T02:30:48.155Z,133.17
2023-03-18T02:31:51.153Z,133.00
2023-03-18T02:32:54.606Z,133.00
2023-03-18T02:33:57.516Z,132.00
2023-03-18T02:35:01.978Z,132.00
2023-03-18T02:36:12.151Z,131.00
2023-03-18T02:37:14.038Z,131.00
2023-03-18T02:38:15.899Z,131.83
2023-03-18T02:39:17.810Z,132.00
2023-03-18T02:40:20.998Z,132.00
2023-03-18T02:41:29.509Z,132.00
2023-03-18T02:42:31.902Z,132.00
2023-03-18T02:43:33.834Z,133.00
2023-03-18T02:44:42.225Z,133.50
2023-03-18T02:46:11.890Z,134.17
2023-03-18T02:47:17.942Z,135.50
2023-03-18T02:48:21.493Z,136.00
2023-03-18T02:49:26.206Z,136.67
2023-03-18T02:50:28.181Z,137.00
2023-03-18T02:51:30.616Z,137.00
2023-03-18T02:52:32.555Z,137.00
2023-03-18T02:53:35.023Z,137.00
2023-03-18T02:54:37.137Z,136.17
2023-03-18T02:55:39.047Z,136.00
2023-03-18T02:56:43.824Z,135.67
2023-03-18T02:57:45.804Z,135.00
2023-03-18T02:58:48.318Z,134.00
2023-03-18T02:59:51.367Z,131.50
2023-03-18T03:00:53.277Z,129.00
2023-03-18T03:01:55.747Z,127.17
2023-03-18T03:02:57.949Z,126.00
2023-03-18T03:04:01.047Z,126.00
2023-03-18T03:05:03.045Z,126.00
2023-03-18T03:06:05.149Z,126.00
2023-03-18T03:07:07.614Z,126.00
2023-03-18T03:08:10.191Z,126.00
2023-03-18T03:09:16.213Z,126.00
2023-03-18T03:10:18.313Z,126.00
2023-03-18T03:11:20.738Z,126.00
2023-03-18T03:12:23.029Z,126.00
2023-03-18T03:13:24.943Z,125.67
2023-03-18T03:14:26.753Z,125.00
2023-03-18T03:15:28.768Z,124.83
2023-03-18T03:16:31.474Z,124.00
2023-03-18T03:17:33.770Z,124.00
2023-03-18T03:18:35.840Z,125.00
2023-03-18T03:19:38.270Z,125.00
2023-03-18T03:20:40.372Z,125.00
2023-03-18T03:21:42.596Z,125.00
2023-03-18T03:22:44.815Z,125.00
2023-03-18T03:23:47.817Z,125.83
2023-03-18T03:24:49.750Z,126.67
2023-03-18T03:25:51.602Z,127.50
2023-03-18T03:26:54.079Z,128.50
2023-03-18T03:27:56.065Z,129.00
2023-03-18T03:28:58.514Z,129.67
2023-03-18T03:30:00.302Z,130.00
2023-03-18T03:31:02.446Z,130.67
2023-03-18T03:32:04.518Z,131.00
2023-03-18T03:33:06.969Z,131.00
2023-03-18T03:34:09.026Z,131.00
2023-03-18T03:35:14.263Z,131.00
2023-03-18T03:36:17.934Z,130.83
2023-03-18T03:37:19.722Z,129.83
2023-03-18T03:38:23.093Z,128.67
2023-03-18T03:39:25.017Z,127.33
2023-03-18T03:40:27.715Z,125.67
2023-03-18T03:41:29.660Z,124.33
2023-03-18T03:42:32.056Z,122.50
2023-03-18T03:43:34.600Z,121.17
2023-03-18T03:44:36.551Z,120.00
2023-03-18T03:45:38.483Z,119.33
2023-03-18T03:46:40.743Z,118.83
2023-03-18T03:47:43.637Z,118.00
2023-03-18T03:48:45.462Z,118.67
2023-03-18T03:49:47.753Z,119.00
2023-03-18T03:50:50.902Z,119.67
2023-03-18T03:51:52.782Z,120.33
2023-03-18T03:52:54.741Z,122.50
2023-03-18T03:53:56.495Z,126.00
2023-03-18T03:55:00.685Z,127.83
2023-03-18T03:56:02.864Z,129.00
2023-03-18T03:57:04.624Z,129.67
2023-03-18T03:58:06.562Z,130.00
2023-03-18T03:59:10.221Z,130.33
2023-03-18T04:00:16.918Z,131.00
2023-03-18T04:01:18.673Z,131.00
2023-03-18T04:02:21.594Z,131.00
2023-03-18T04:03:23.812Z,131.00
2023-03-18T04:04:26.100Z,131.00
2023-03-18T04:05:29.667Z,131.00
2023-03-18T04:06:31.757Z,131.17
2023-03-18T04:07:33.621Z,132.50
2023-03-18T04:08:35.448Z,133.00
2023-03-18T04:09:38.070Z,133.67
2023-03-18T04:10:40.057Z,133.00
2023-03-18T04:11:42.941Z,133.00
2023-03-18T04:12:48.695Z,133.00
2023-03-18T04:13:50.438Z,132.00
2023-03-18T04:14:52.372Z,132.00
2023-03-18T04:15:54.857Z,132.00
2023-03-18T04:16:58.179Z,132.00
2023-03-18T04:18:04.962Z,132.00
2023-03-18T04:19:07.235Z,132.00
2023-03-18T04:20:09.946Z,132.00
2023-03-18T04:21:11.920Z,132.00
2023-03-18T04:22:14.073Z,132.00
2023-03-18T04:23:15.905Z,132.00
2023-03-18T04:24:17.909Z,132.00
2023-03-18T04:25:19.990Z,132.00
2023-03-18T04:26:22.119Z,132.00
2023-03-18T04:27:24.702Z,131.33
2023-03-18T04:28:26.525Z,131.00
2023-03-18T04:29:28.333Z,131.00
2023-03-18T04:30:30.945Z,131.00
2023-03-18T04:31:33.064Z,131.00
2023-03-18T04:32:35.150Z,131.00
2023-03-18T04:33:36.963Z,131.00
2023-03-18T04:34:38.817Z,131.00
2023-03-18T04:35:43.621Z,131.50
2023-03-18T04:36:45.745Z,135.50
2023-03-18T04:37:48.640Z,140.83
2023-03-18T04:38:50.537Z,143.33
2023-03-18T04:39:52.488Z,144.00
2023-03-18T04:40:54.502Z,144.33
2023-03-18T04:41:57.152Z,143.83
2023-03-18T04:42:58.981Z,143.00
2023-03-18T04:44:00.734Z,143.00
2023-03-18T04:45:02.571Z,142.50
2023-03-18T04:46:05.391Z,141.83
2023-03-18T04:47:08.137Z,140.00
2023-03-18T04:48:10.443Z,138.00
2023-03-18T04:49:12.941Z,138.00
2023-03-18T04:50:15.379Z,137.17
2023-03-18T04:51:17.477Z,137.00
2023-03-18T04:52:20.252Z,137.00
2023-03-18T04:53:22.095Z,138.33
2023-03-18T04:54:23.893Z,140.83
2023-03-18T04:55:25.734Z,142.50
2023-03-18T04:56:27.628Z,143.00
2023-03-18T04:57:29.626Z,143.00
2023-03-18T04:58:31.480Z,143.00
2023-03-18T04:59:33.622Z,143.00
2023-03-18T05:00:35.505Z,143.17
2023-03-18T05:01:38.117Z,144.17
2023-03-18T05:02:41.018Z,145.33
2023-03-18T05:03:43.556Z,147.50
2023-03-18T05:04:45.601Z,149.67
2023-03-18T05:05:49.165Z,150.00
2023-03-18T05:06:52.126Z,149.67
2023-03-18T05:07:54.315Z,148.17
2023-03-18T05:08:57.176Z,146.17
2023-03-18T05:09:59.114Z,144.83
2023-03-18T05:11:01.158Z,144.33
2023-03-18T05:12:03.030Z,145.00
2023-03-18T05:13:04.846Z,145.00
2023-03-18T05:14:06.876Z,145.00
2023-03-18T05:15:10.931Z,143.67
2023-03-18T05:16:14.014Z,141.00
2023-03-18T05:17:17.320Z,137.33
2023-03-18T05:18:19.277Z,132.33
2023-03-18T05:19:21.267Z,129.67
2023-03-18T05:20:23.537Z,129.00
2023-03-18T05:21:25.706Z,129.67
2023-03-18T05:22:27.559Z,130.00
2023-03-18T05:23:29.545Z,130.50
2023-03-18T05:24:31.395Z,131.00
2023-03-18T05:25:33.591Z,131.00
2023-03-18T05:26:36.144Z,130.83
2023-03-18T05:27:38.399Z,130.00
2023-03-18T05:28:40.413Z,130.00
2023-03-18T05:29:42.375Z,130.83
2023-03-18T05:30:44.377Z,131.00
2023-03-18T05:31:46.676Z,131.00
2023-03-18T05:32:48.819Z,131.00
2023-03-18T05:33:50.736Z,130.33
2023-03-18T05:34:52.782Z,130.00
2023-03-18T05:35:59.500Z,130.00
2023-03-18T05:37:02.163Z,130.00
2023-03-18T05:38:04.074Z,130.00
2023-03-18T05:39:05.917Z,130.83
2023-03-18T05:40:10.092Z,132.67
2023-03-18T05:41:12.055Z,134.50
2023-03-18T05:42:14.229Z,137.50
2023-03-18T05:43:16.137Z,140.50
2023-03-18T05:44:17.966Z,142.00
2023-03-18T05:45:19.903Z,142.00
2023-03-18T05:46:21.836Z,141.17
2023-03-18T05:47:23.768Z,140.50
2023-03-18T05:48:27.148Z,137.67
2023-03-18T05:49:29.468Z,132.50
2023-03-18T05:50:33.854Z,126.50
2023-03-18T05:51:35.997Z,122.17
2023-03-18T05:52:38.288Z,119.00
2023-03-18T05:53:40.218Z,117.00
2023-03-18T05:54:42.487Z,116.00
2023-03-18T05:55:44.526Z,116.00
2023-03-18T05:56:46.676Z,116.00
2023-03-18T05:57:48.714Z,115.50
2023-03-18T05:58:51.269Z,115.83
2023-03-18T05:59:53.669Z,116.17
2023-03-18T06:00:56.164Z,117.00
2023-03-18T06:01:58.351Z,117.00
2023-03-18T06:03:01.704Z,117.00
2023-03-18T06:04:06.151Z,116.33
2023-03-18T06:05:08.390Z,116.00
2023-03-18T06:06:10.235Z,115.83
2023-03-18T06:07:12.349Z,114.00
2023-03-18T06:08:15.260Z,112.17
2023-03-18T06:09:17.644Z,111.00
2023-03-18T06:10:20.165Z,111.00
2023-03-18T06:11:22.300Z,110.33
2023-03-18T06:12:27.414Z,108.67
2023-03-18T06:13:30.121Z,108.00
2023-03-18T06:14:32.005Z,108.00
2023-03-18T06:15:34.009Z,108.17
2023-03-18T06:16:36.341Z,110.33
2023-03-18T06:17:38.808Z,112.67
2023-03-18T06:18:41.622Z,113.00
2023-03-18T06:19:45.061Z,111.67
2023-03-18T06:20:47.025Z,109.00
2023-03-18T06:21:49.204Z,107.17
2023-03-18T06:22:51.696Z,106.00
2023-03-18T06:23:54.303Z,106.50
2023-03-18T06:24:56.543Z,105.83
2023-03-18T06:25:58.348Z,103.17
2023-03-18T06:27:00.227Z,102.33
2023-03-18T06:28:02.138Z,103.33
2023-03-18T06:29:05.336Z,104.00
2023-03-18T06:30:07.716Z,103.33
2023-03-18T06:31:10.795Z,102.00
2023-03-18T06:32:12.714Z,102.00
2023-03-18T06:33:15.295Z,101.00
2023-03-18T06:34:17.073Z,100.33
2023-03-18T06:35:19.197Z,99.33
2023-03-18T06:36:21.697Z,99.83
2023-03-18T06:37:24.752Z,100.67
2023-03-18T06:38:28.196Z,102.50
2023-03-18T06:39:30.327Z,105.33
2023-03-18T06:40:32.156Z,106.00
2023-03-18T06:41:33.952Z,106.00
2023-03-18T06:42:35.997Z,106.33
2023-03-18T06:43:38.266Z,107.00
2023-03-18T06:44:42.904Z,107.67
2023-03-18T06:45:45.116Z,107.67
2023-03-18T06:46:47.328Z,107.00
2023-03-18T06:47:49.706Z,105.83
2023-03-18T06:48:51.511Z,101.67
2023-03-18T06:49:53.518Z,94.00
2023-03-18T06:50:55.381Z,92.83
2023-03-18T06:51:57.183Z,91.33
2023-03-18T06:52:59.653Z,91.00
2023-03-18T06:54:01.481Z,90.17
2023-03-18T06:55:04.740Z,87.17
2023-03-18T06:56:07.841Z,85.50
2023-03-18T06:57:09.670Z,84.33
2023-03-18T06:58:12.037Z,84.00
2023-03-18T06:59:14.647Z,84.00
2023-03-18T07:00:17.345Z,84.00
2023-03-18T07:01:19.596Z,84.00
2023-03-18T07:02:23.700Z,82.83
2023-03-18T07:03:26.535Z,81.00
2023-03-18T07:04:28.637Z,80.83
2023-03-18T07:05:30.827Z,83.00
2023-03-18T07:06:33.104Z,89.67
2023-03-18T07:07:37.636Z,91.67
2023-03-18T07:08:39.704Z,91.00
2023-03-18T07:09:41.694Z,91.00
2023-03-18T07:10:43.750Z,91.00
2023-03-18T07:11:48.667Z,89.67
2023-03-18T07:12:50.690Z,85.67
2023-03-18T07:13:53.239Z,82.67
2023-03-18T07:14:55.114Z,80.50
2023-03-18T07:15:57.116Z,78.00
2023-03-18T07:16:59.166Z,74.67
2023-03-18T07:18:02.929Z,74.33
2023-03-18T07:19:04.974Z,75.00
2023-03-18T07:20:07.386Z,74.67
2023-03-18T07:21:10.082Z,74.33
2023-03-18T07:22:12.149Z,75.17
2023-03-18T07:23:14.837Z,77.00
2023-03-18T07:24:17.297Z,80.83
2023-03-18T07:25:21.679Z,83.00
2023-03-18T07:26:24.309Z,85.83
2023-03-18T07:27:26.095Z,86.00
2023-03-18T07:28:27.938Z,86.00
2023-03-18T07:29:29.721Z,85.50
2023-03-18T07:30:31.720Z,85.00
2023-03-18T07:31:33.638Z,85.00
2023-03-18T07:32:38.656Z,85.00
2023-03-18T07:33:40.988Z,85.50
2023-03-18T07:34:42.894Z,86.33
2023-03-18T07:35:44.849Z,85.83
2023-03-18T07:36:46.950Z,82.50
2023-03-18T07:37:48.871Z,77.17
2023-03-18T07:38:50.990Z,76.67
2023-03-18T07:39:53.203Z,77.50
2023-03-18T07:40:56.330Z,80.33
2023-03-18T07:41:58.230Z,84.67
2023-03-18T07:43:00.814Z,91.00
2023-03-18T07:44:03.354Z,94.33
2023-03-18T07:45:06.804Z,98.00
2023-03-18T07:46:08.691Z,103.83
2023-03-18T07:47:10.618Z,105.83
2023-03-18T07:48:12.746Z,106.67
2023-03-18T07:49:14.680Z,101.00
2023-03-18T07:50:17.296Z,84.50
2023-03-18T07:51:19.261Z,70.67
2023-03-18T07:52:22.021Z,69.00
2023-03-18T07:53:23.887Z,70.83
2023-03-18T07:54:25.742Z,72.50
2023-03-18T07:55:27.465Z,74.17
2023-03-18T07:56:29.371Z,75.67
2023-03-18T07:57:31.489Z,76.50
2023-03-18T07:58:34.169Z,78.00
2023-03-18T07:59:37.612Z,74.67
2023-03-18T08:00:39.663Z,69.17
2023-03-18T08:01:41.836Z,63.17
2023-03-18T08:02:43.868Z,60.50
2023-03-18T08:03:47.174Z,64.33
2023-03-18T08:04:49.188Z,65.83
2023-03-18T08:05:51.465Z,65.50
2023-03-18T08:06:53.467Z,63.33
2023-03-18T08:07:55.516Z,61.33
2023-03-18T08:08:57.658Z,61.67
2023-03-18T08:09:59.601Z,62.67
2023-03-18T08:11:02.488Z,64.50
2023-03-18T08:12:04.630Z,67.67
2023-03-18T08:13:06.477Z,74.17
2023-03-18T08:14:08.280Z,81.17
2023-03-18T08:15:11.544Z,80.83
2023-03-18T08:16:13.602Z,81.17
2023-03-18T08:17:15.657Z,78.00
2023-03-18T08:18:17.597Z,74.00
2023-03-18T08:19:19.658Z,70.83
2023-03-18T08:20:23.032Z,64.50
2023-03-18T08:21:24.923Z,64.50
2023-03-18T08:22:26.729Z,63.83
2023-03-18T08:23:28.601Z,63.67
2023-03-18T08:24:30.679Z,64.67
2023-03-18T08:25:32.854Z,64.67
2023-03-18T08:26:35.977Z,62.00
2023-03-18T08:27:37.959Z,61.33
2023-03-18T08:28:40.176Z,62.00
2023-03-18T08:29:42.154Z,63.00
2023-03-18T08:30:44.403Z,63.33
2023-03-18T08:31:46.571Z,64.83
2023-03-18T08:32:48.457Z,65.00
2023-03-18T08:33:54.119Z,64.83
2023-03-18T08:34:56.732Z,62.83
2023-03-18T08:35:59.355Z,75.17
2023-03-18T08:37:01.212Z,82.17
2023-03-18T08:38:04.250Z,76.17
2023-03-18T08:39:06.124Z,60.50
2023-03-18T08:40:09.892Z,53.50
2023-03-18T08:41:11.784Z,54.50
2023-03-18T08:42:13.634Z,48.33
2023-03-18T08:43:15.465Z,48.83
2023-03-18T08:44:18.007Z,48.00
2023-03-18T08:45:20.333Z,49.17
2023-03-18T08:46:22.236Z,49.67
2023-03-18T08:47:25.250Z,45.17
2023-03-18T08:48:27.184Z,41.67
2023-03-18T08:49:29.584Z,45.00
2023-03-18T08:50:31.967Z,52.00
2023-03-18T08:51:34.617Z,51.67
2023-03-18T08:52:38.679Z,47.17
2023-03-18T08:53:40.792Z,44.67
2023-03-18T08:54:42.608Z,43.83
2023-03-18T08:55:44.621Z,42.83
2023-03-18T08:56:47.544Z,33.67
2023-03-18T08:57:50.260Z,26.83
2023-03-18T08:58:52.196Z,28.00
2023-03-18T08:59:54.402Z,31.33
2023-03-18T09:00:56.464Z,33.33
2023-03-18T09:01:58.598Z,36.50
2023-03-18T09:03:01.765Z,45.33
2023-03-18T09:04:03.727Z,46.67
2023-03-18T09:05:06.019Z,46.17
2023-03-18T09:06:07.944Z,45.17
2023-03-18T09:07:10.789Z,49.50
2023-03-18T09:08:13.616Z,61.50
2023-03-18T09:09:15.902Z,63.00
2023-03-18T09:10:18.390Z,58.17
2023-03-18T09:11:20.414Z,47.67
2023-03-18T09:12:23.236Z,39.17
2023-03-18T09:13:26.540Z,38.00
2023-03-18T09:14:28.533Z,51.67
2023-03-18T09:15:31.597Z,81.17
2023-03-18T09:16:33.774Z,72.33
2023-03-18T09:17:53.402Z,47.83
2023-03-18T09:18:58.662Z,28.67
2023-03-18T09:20:01.264Z,34.33
2023-03-18T09:21:04.975Z,33.00
2023-03-18T09:22:09.261Z,25.67
2023-03-18T09:23:13.310Z,25.67
2023-03-18T09:24:15.689Z,28.00
2023-03-18T09:25:18.198Z,29.67
2023-03-18T09:26:20.095Z,29.67
2023-03-18T09:27:21.865Z,29.67
2023-03-18T09:28:23.950Z,28.33
2023-03-18T09:29:25.829Z,26.50
2023-03-18T09:30:28.085Z,22.50
2023-03-18T09:31:30.728Z,19.00
2023-03-18T09:32:33.193Z,16.67
2023-03-18T09:33:37.092Z,16.83
2023-03-18T09:34:38.952Z,18.33
2023-03-18T09:35:41.221Z,19.00
2023-03-18T09:36:49.239Z,19.00
2023-03-18T09:37:51.978Z,18.67
2023-03-18T09:38:53.802Z,17.83
2023-03-18T09:39:56.144Z,17.67
2023-03-18T09:41:28.117Z,24.33
2023-03-18T09:42:48.561Z,46.17
2023-03-18T09:44:03.275Z,45.83
2023-03-18T09:45:30.571Z,39.33
2023-03-18T09:46:55.864Z,28.50
2023-03-18T09:48:00.480Z,22.83
2023-03-18T09:49:10.054Z,14.67
2023-03-18T09:50:31.698Z,10.17
2023-03-18T09:51:37.356Z,13.67
2023-03-18T09:52:45.977Z,16.33
2023-03-18T09:53:52.737Z,44.17
2023-03-18T09:55:03.116Z,37.00
2023-03-18T09:56:07.416Z,25.33
2023-03-18T09:57:28.578Z,16.67
2023-03-18T09:58:56.693Z,14.83
2023-03-18T10:00:11.476Z,31.33
2023-03-18T10:01:15.021Z,38.83
2023-03-18T10:02:37.274Z,35.67
2023-03-18T10:03:50.278Z,37.33
2023-03-18T10:05:02.047Z,36.33
2023-03-18T10:06:16.659Z,72.00
2023-03-18T10:07:23.809Z,74.83
2023-03-18T10:09:03.597Z,54.33
2023-03-18T10:10:28.702Z,30.17
2023-03-18T10:11:44.166Z,18.50
2023-03-18T10:12:53.241Z,14.00
2023-03-18T10:14:31.250Z,11.83
2023-03-18T10:15:49.064Z,11.83
2023-03-18T10:17:06.169Z,11.00
2023-03-18T10:18:32.460Z,8.83
2023-03-18T10:19:36.776Z,8.83
2023-03-18T10:20:50.965Z,10.83
2023-03-18T10:21:52.728Z,12.17
2023-03-18T10:23:05.036Z,13.00
2023-03-18T10:24:27.926Z,12.33
2023-03-18T10:25:53.665Z,12.50
2023-03-18T10:27:08.885Z,31.83
2023-03-18T10:28:16.904Z,30.83
2023-03-18T10:29:30.809Z,29.33
2023-03-18T10:30:36.293Z,39.17
2023-03-18T10:31:57.122Z,48.83
2023-03-18T10:33:11.186Z,43.00
2023-03-18T10:34:24.918Z,39.17
2023-03-18T10:36:02.107Z,34.50
2023-03-18T10:37:45.525Z,36.67
2023-03-18T10:38:50.637Z,17.83
2023-03-18T10:39:53.207Z,12.50
2023-03-18T10:40:55.692Z,13.67
2023-03-18T10:42:01.251Z,13.67
2023-03-18T10:43:04.245Z,13.67
2023-03-18T10:44:28.551Z,14.00
2023-03-18T10:45:33.847Z,12.67
2023-03-18T10:46:37.688Z,11.83
2023-03-18T10:47:46.311Z,10.83
2023-03-18T10:48:52.524Z,10.67
2023-03-18T10:50:06.333Z,11.00
2023-03-18T10:51:29.557Z,11.00
2023-03-18T10:52:38.876Z,12.17
2023-03-18T10:53:52.904Z,14.00
2023-03-18T10:54:54.729Z,13.67
2023-03-18T10:56:09.700Z,11.67
2023-03-18T10:57:14.537Z,9.67
2023-03-18T10:58:18.553Z,8.50
2023-03-18T10:59:23.074Z,8.67
2023-03-18T11:00:30.927Z,13.50
2023-03-18T11:01:33.353Z,22.67
2023-03-18T11:02:39.015Z,24.67
2023-03-18T11:03:54.663Z,23.33
2023-03-18T11:05:06.922Z,21.83
2023-03-18T11:06:28.223Z,21.00
2023-03-18T11:07:32.296Z,22.00
2023-03-18T11:08:34.703Z,21.50
2023-03-18T11:09:42.371Z,19.67
2023-03-18T11:10:48.228Z,18.00
2023-03-18T11:11:57.026Z,33.33
2023-03-18T11:13:08.208Z,44.00
2023-03-18T11:14:17.184Z,32.17
2023-03-18T11:15:20.298Z,23.17
2023-03-18T11:16:33.027Z,21.00
2023-03-18T11:17:36.940Z,21.00
2023-03-18T11:18:49.690Z,19.50
2023-03-18T11:20:07.574Z,18.33
2023-03-18T11:21:13.056Z,41.17
2023-03-18T11:22:23.261Z,62.83
2023-03-18T11:23:56.137Z,51.17
2023-03-18T11:25:24.194Z,42.50
2023-03-18T11:26:28.521Z,18.17
2023-03-18T11:27:37.718Z,8.83
2023-03-18T11:28:41.920Z,6.33
2023-03-18T11:29:49.975Z,5.67
2023-03-18T11:30:56.172Z,7.00
2023-03-18T11:31:59.048Z,8.50
2023-03-18T11:33:03.628Z,18.33
2023-03-18T11:34:08.744Z,35.00
2023-03-18T11:35:20.040Z,30.50
2023-03-18T11:36:24.153Z,28.50
2023-03-18T11:37:35.729Z,27.50
2023-03-18T11:38:37.869Z,22.33
2023-03-18T11:39:41.656Z,15.50
2023-03-18T11:40:43.893Z,11.67
2023-03-18T11:41:48.300Z,11.00
2023-03-18T11:42:58.627Z,11.00
2023-03-18T11:44:15.577Z,12.33
2023-03-18T11:45:26.330Z,14.00
2023-03-18T11:46:53.497Z,16.83
2023-03-18T11:47:57.462Z,24.83
2023-03-18T11:48:59.535Z,24.50
2023-03-18T11:50:04.245Z,25.00
2023-03-18T11:51:33.622Z,29.67
2023-03-18T11:52:52.385Z,36.00
2023-03-18T11:54:24.887Z,49.00
2023-03-18T11:55:52.731Z,42.33
2023-03-18T11:56:58.690Z,34.83
2023-03-18T11:58:28.983Z,27.83
2023-03-18T11:59:51.593Z,16.33
2023-03-18T12:01:13.614Z,19.00
2023-03-18T12:02:24.199Z,20.50
2023-03-18T12:03:47.522Z,17.00
2023-03-18T12:05:05.653Z,13.17
2023-03-18T12:06:20.536Z,12.17
2023-03-18T12:07:44.119Z,16.00
2023-03-18T12:08:54.518Z,16.00
2023-03-18T12:10:19.781Z,15.17
2023-03-18T12:11:30.808Z,20.17
2023-03-18T12:12:41.715Z,32.17
2023-03-18T12:13:58.815Z,31.50
2023-03-18T12:15:03.320Z,40.67
2023-03-18T12:16:12.926Z,39.33
2023-03-18T12:17:40.508Z,36.00
2023-03-18T12:19:01.029Z,33.83
2023-03-18T12:20:04.403Z,26.17
2023-03-18T12:21:25.291Z,20.00
2023-03-18T12:22:40.234Z,16.00
2023-03-18T12:23:59.608Z,16.00
2023-03-18T12:25:21.532Z,15.67
2023-03-18T12:26:26.105Z,13.50
2023-03-18T12:27:35.744Z,10.50
2023-03-18T12:28:49.718Z,8.17
2023-03-18T12:30:01.596Z,8.00
2023-03-18T12:31:30.830Z,8.00
2023-03-18T12:32:42.720Z,8.00
2023-03-18T12:33:56.764Z,7.33
2023-03-18T12:35:39.908Z,7.33
2023-03-18T12:37:00.159Z,8.00
2023-03-18T12:38:39.909Z,8.00
2023-03-18T12:40:19.967Z,8.00
2023-03-18T12:41:37.196Z,9.00
2023-03-18T12:43:13.180Z,9.33
2023-03-18T12:44:29.033Z,37.00
2023-03-18T12:45:36.487Z,28.67
2023-03-18T12:46:45.890Z,26.67
2023-03-18T12:48:05.238Z,25.33
2023-03-18T12:49:18.231Z,25.00
2023-03-18T12:50:27.752Z,29.00
2023-03-18T12:51:40.524Z,39.00
2023-03-18T12:53:03.532Z,34.67
2023-03-18T12:54:16.267Z,32.50
2023-03-18T12:55:29.334Z,29.17
2023-03-18T12:56:31.306Z,20.50
2023-03-18T12:57:40.925Z,14.17
2023-03-18T12:58:50.935Z,11.00
2023-03-18T13:00:10.441Z,9.33
2023-03-18T13:01:20.530Z,9.00
2023-03-18T13:03:07.366Z,9.33
2023-03-18T13:04:18.463Z,10.00
2023-03-18T13:05:29.386Z,10.00
2023-03-18T13:06:41.015Z,10.00
2023-03-18T13:07:47.826Z,11.33
2023-03-18T13:09:08.223Z,12.50
2023-03-18T13:10:19.249Z,13.33
2023-03-18T13:11:30.545Z,16.00
2023-03-18T13:12:38.774Z,18.83
2023-03-18T13:13:46.003Z,21.50
2023-03-18T13:14:56.465Z,21.83
2023-03-18T13:16:01.286Z,19.17
2023-03-18T13:17:04.625Z,15.17
2023-03-18T13:18:19.614Z,12.50
2023-03-18T13:19:21.478Z,11.00
2023-03-18T13:20:33.759Z,10.67
2023-03-18T13:21:41.474Z,10.00
2023-03-18T13:22:43.895Z,10.00
2023-03-18T13:23:57.641Z,9.17
2023-03-18T13:25:35.419Z,8.67
2023-03-18T13:26:52.409Z,7.50
2023-03-18T13:28:13.002Z,7.00
2023-03-18T13:30:14.535Z,7.00
2023-03-18T13:31:39.801Z,7.00
2023-03-18T13:36:32.023Z,7.00
2023-03-18T13:37:44.589Z,9.33
2023-03-18T13:38:51.493Z,19.00
2023-03-18T13:40:04.563Z,21.17
2023-03-18T13:41:32.615Z,19.33
2023-03-18T13:42:39.116Z,16.67
2023-03-18T13:43:49.115Z,14.50
2023-03-18T13:44:56.841Z,13.00
2023-03-18T13:45:59.476Z,13.00
2023-03-18T13:47:04.698Z,12.50
2023-03-18T13:48:16.464Z,12.00
2023-03-18T13:49:23.857Z,12.00
2023-03-18T13:50:34.087Z,21.83
2023-03-18T13:51:36.386Z,41.17
2023-03-18T13:52:44.049Z,37.17
2023-03-18T13:53:47.403Z,51.67
2023-03-18T13:54:49.333Z,40.67
2023-03-18T13:55:57.761Z,32.00
2023-03-18T13:57:17.550Z,18.83
2023-03-18T13:58:34.103Z,10.67
2023-03-18T13:59:36.024Z,8.67
2023-03-18T14:00:45.624Z,8.00
2023-03-18T14:01:50.898Z,8.67